sensor_id;sensor_type;location;lat;lon;timestamp;temperature;humidity
20102;DHT22;10210;52.284;9.892;2024-02-14T00:00:01;9.30;99.90
20102;DHT22;10210;52.284;9.892;2024-02-14T00:02:27;9.30;99.90
20102;DHT22;10210;52.284;9.892;2024-02-14T00:04:53;9.30;99.90
20102;DHT22;10210;52.284;9.892;2024-02-14T00:07:19;9.30;99.90
20102;DHT22;10210;52.284;9.892;2024-02-14T00:09:46;9.30;99.90
20102;DHT22;10210;52.284;9.892;2024-02-14T00:12:12;9.30;99.90
20102;DHT22;10210;52.284;9.892;2024-02-14T00:14:38;9.30;99.90
20102;DHT22;10210;52.284;9.892;2024-02-14T00:17:05;9.30;99.90
20102;DHT22;10210;52.284;9.892;2024-02-14T00:19:31;9.40;99.90
20102;DHT22;10210;52.284;9.892;2024-02-14T00:21:57;9.30;99.90
20102;DHT22;10210;52.284;9.892;2024-02-14T00:24:23;9.30;99.90
20102;DHT22;10210;52.284;9.892;2024-02-14T00:26:53;9.30;99.90
20102;DHT22;10210;52.284;9.892;2024-02-14T00:29:19;9.30;99.90
20102;DHT22;10210;52.284;9.892;2024-02-14T00:31:45;9.30;99.90
20102;DHT22;10210;52.284;9.892;2024-02-14T00:34:10;9.30;99.90
20102;DHT22;10210;52.284;9.892;2024-02-14T00:36:36;9.30;99.90
20102;DHT22;10210;52.284;9.892;2024-02-14T00:39:02;9.30;99.90
20102;DHT22;10210;52.284;9.892;2024-02-14T00:41:28;9.30;99.90
20102;DHT22;10210;52.284;9.892;2024-02-14T00:43:55;9.30;99.90
20102;DHT22;10210;52.284;9.892;2024-02-14T00:46:22;9.30;99.90
20102;DHT22;10210;52.284;9.892;2024-02-14T00:48:48;9.30;99.90
20102;DHT22;10210;52.284;9.892;2024-02-14T00:51:13;9.30;99.90
20102;DHT22;10210;52.284;9.892;2024-02-14T00:53:39;9.30;99.90
20102;DHT22;10210;52.284;9.892;2024-02-14T00:56:05;9.30;99.90
20102;DHT22;10210;52.284;9.892;2024-02-14T00:58:31;9.30;99.90
20102;DHT22;10210;52.284;9.892;2024-02-14T01:00:57;9.40;99.90
20102;DHT22;10210;52.284;9.892;2024-02-14T01:03:23;9.40;99.90
20102;DHT22;10210;52.284;9.892;2024-02-14T01:05:49;9.40;99.90
20102;DHT22;10210;52.284;9.892;2024-02-14T01:08:15;9.40;99.90
20102;DHT22;10210;52.284;9.892;2024-02-14T01:10:40;9.30;99.90
20102;DHT22;10210;52.284;9.892;2024-02-14T01:13:06;9.30;99.90
20102;DHT22;10210;52.284;9.892;2024-02-14T01:15:32;9.30;99.90
20102;DHT22;10210;52.284;9.892;2024-02-14T01:17:59;9.30;99.90
20102;DHT22;10210;52.284;9.892;2024-02-14T01:20:24;9.30;99.90
20102;DHT22;10210;52.284;9.892;2024-02-14T01:22:50;9.30;99.90
20102;DHT22;10210;52.284;9.892;2024-02-14T01:25:15;9.30;99.90
20102;DHT22;10210;52.284;9.892;2024-02-14T01:27:41;9.30;99.90
20102;DHT22;10210;52.284;9.892;2024-02-14T01:30:10;9.30;99.90
20102;DHT22;10210;52.284;9.892;2024-02-14T01:32:37;9.30;99.90
20102;DHT22;10210;52.284;9.892;2024-02-14T01:35:03;9.30;99.90
20102;DHT22;10210;52.284;9.892;2024-02-14T01:37:30;9.30;99.90
20102;DHT22;10210;52.284;9.892;2024-02-14T01:39:56;9.30;99.90
20102;DHT22;10210;52.284;9.892;2024-02-14T01:42:21;9.30;99.90
20102;DHT22;10210;52.284;9.892;2024-02-14T01:44:47;9.30;99.90
20102;DHT22;10210;52.284;9.892;2024-02-14T01:47:13;9.40;99.90
20102;DHT22;10210;52.284;9.892;2024-02-14T01:49:39;9.40;99.90
20102;DHT22;10210;52.284;9.892;2024-02-14T01:52:09;9.40;99.90
20102;DHT22;10210;52.284;9.892;2024-02-14T01:54:35;9.40;99.90
20102;DHT22;10210;52.284;9.892;2024-02-14T01:57:02;9.40;99.90
20102;DHT22;10210;52.284;9.892;2024-02-14T01:59:29;9.50;99.90
20102;DHT22;10210;52.284;9.892;2024-02-14T02:01:55;9.50;99.90
20102;DHT22;10210;52.284;9.892;2024-02-14T02:04:21;9.50;99.90
20102;DHT22;10210;52.284;9.892;2024-02-14T02:06:47;9.50;99.90
20102;DHT22;10210;52.284;9.892;2024-02-14T02:09:13;9.50;99.90
20102;DHT22;10210;52.284;9.892;2024-02-14T02:11:49;9.50;99.90
20102;DHT22;10210;52.284;9.892;2024-02-14T02:14:16;9.50;99.90
20102;DHT22;10210;52.284;9.892;2024-02-14T02:16:42;9.50;99.90
20102;DHT22;10210;52.284;9.892;2024-02-14T02:19:09;9.50;99.90
20102;DHT22;10210;52.284;9.892;2024-02-14T02:21:36;9.50;99.90
20102;DHT22;10210;52.284;9.892;2024-02-14T02:24:02;9.50;99.90
20102;DHT22;10210;52.284;9.892;2024-02-14T02:26:28;9.50;99.90
20102;DHT22;10210;52.284;9.892;2024-02-14T02:28:53;9.50;99.90
20102;DHT22;10210;52.284;9.892;2024-02-14T02:31:19;9.50;99.90
20102;DHT22;10210;52.284;9.892;2024-02-14T02:33:46;9.60;99.90
20102;DHT22;10210;52.284;9.892;2024-02-14T02:36:12;9.50;99.90
20102;DHT22;10210;52.284;9.892;2024-02-14T02:38:38;9.50;99.90
20102;DHT22;10210;52.284;9.892;2024-02-14T02:41:05;9.50;99.90
20102;DHT22;10210;52.284;9.892;2024-02-14T02:43:32;9.40;99.90
20102;DHT22;10210;52.284;9.892;2024-02-14T02:45:58;9.40;99.90
20102;DHT22;10210;52.284;9.892;2024-02-14T02:48:24;9.40;99.90
20102;DHT22;10210;52.284;9.892;2024-02-14T02:50:50;9.40;99.90
20102;DHT22;10210;52.284;9.892;2024-02-14T02:53:17;9.40;99.90
20102;DHT22;10210;52.284;9.892;2024-02-14T02:55:43;9.30;99.90
20102;DHT22;10210;52.284;9.892;2024-02-14T02:58:10;9.30;99.90
20102;DHT22;10210;52.284;9.892;2024-02-14T03:00:36;9.20;99.90
20102;DHT22;10210;52.284;9.892;2024-02-14T03:03:01;9.20;99.90
20102;DHT22;10210;52.284;9.892;2024-02-14T03:05:29;9.20;99.90
20102;DHT22;10210;52.284;9.892;2024-02-14T03:07:59;9.20;99.90
20102;DHT22;10210;52.284;9.892;2024-02-14T03:10:25;9.20;99.90
20102;DHT22;10210;52.284;9.892;2024-02-14T03:12:51;9.20;99.90
20102;DHT22;10210;52.284;9.892;2024-02-14T03:15:18;9.10;99.90
20102;DHT22;10210;52.284;9.892;2024-02-14T03:17:45;9.10;99.90
20102;DHT22;10210;52.284;9.892;2024-02-14T03:20:12;9.10;99.90
20102;DHT22;10210;52.284;9.892;2024-02-14T03:22:38;9.10;99.90
20102;DHT22;10210;52.284;9.892;2024-02-14T03:25:13;9.00;99.90
20102;DHT22;10210;52.284;9.892;2024-02-14T03:27:42;9.00;99.90
20102;DHT22;10210;52.284;9.892;2024-02-14T03:30:11;9.00;99.90
20102;DHT22;10210;52.284;9.892;2024-02-14T03:32:38;9.00;99.90
20102;DHT22;10210;52.284;9.892;2024-02-14T03:35:04;9.00;99.90
20102;DHT22;10210;52.284;9.892;2024-02-14T03:37:31;9.00;99.90
20102;DHT22;10210;52.284;9.892;2024-02-14T03:39:57;9.00;99.90
20102;DHT22;10210;52.284;9.892;2024-02-14T03:42:23;9.00;99.90
20102;DHT22;10210;52.284;9.892;2024-02-14T03:44:48;9.00;99.90
20102;DHT22;10210;52.284;9.892;2024-02-14T03:47:14;9.10;99.90
20102;DHT22;10210;52.284;9.892;2024-02-14T03:49:40;9.10;99.90
20102;DHT22;10210;52.284;9.892;2024-02-14T03:52:06;9.10;99.90
20102;DHT22;10210;52.284;9.892;2024-02-14T03:54:36;9.10;99.90
20102;DHT22;10210;52.284;9.892;2024-02-14T03:57:02;9.10;99.90
20102;DHT22;10210;52.284;9.892;2024-02-14T03:59:30;9.20;99.90
20102;DHT22;10210;52.284;9.892;2024-02-14T04:01:56;9.20;99.90
20102;DHT22;10210;52.284;9.892;2024-02-14T04:04:23;9.20;99.90
20102;DHT22;10210;52.284;9.892;2024-02-14T04:06:49;9.20;99.90
20102;DHT22;10210;52.284;9.892;2024-02-14T04:09:14;9.20;99.90
20102;DHT22;10210;52.284;9.892;2024-02-14T04:11:40;9.30;99.90
20102;DHT22;10210;52.284;9.892;2024-02-14T04:14:05;9.30;99.90
20102;DHT22;10210;52.284;9.892;2024-02-14T04:16:32;9.30;99.90
20102;DHT22;10210;52.284;9.892;2024-02-14T04:18:57;9.40;99.90
20102;DHT22;10210;52.284;9.892;2024-02-14T04:21:23;9.40;99.90
20102;DHT22;10210;52.284;9.892;2024-02-14T04:23:48;9.40;99.90
20102;DHT22;10210;52.284;9.892;2024-02-14T04:26:21;9.40;99.90
20102;DHT22;10210;52.284;9.892;2024-02-14T04:28:46;9.50;99.90
20102;DHT22;10210;52.284;9.892;2024-02-14T04:31:12;9.50;99.90
20102;DHT22;10210;52.284;9.892;2024-02-14T04:33:38;9.50;99.90
20102;DHT22;10210;52.284;9.892;2024-02-14T04:36:05;9.50;99.90
20102;DHT22;10210;52.284;9.892;2024-02-14T04:38:31;9.50;99.90
20102;DHT22;10210;52.284;9.892;2024-02-14T04:40:57;9.50;99.90
20102;DHT22;10210;52.284;9.892;2024-02-14T04:43:25;9.50;99.90
20102;DHT22;10210;52.284;9.892;2024-02-14T04:45:52;9.50;99.90
20102;DHT22;10210;52.284;9.892;2024-02-14T04:48:19;9.50;99.90
20102;DHT22;10210;52.284;9.892;2024-02-14T04:50:45;9.50;99.90
20102;DHT22;10210;52.284;9.892;2024-02-14T04:53:10;9.50;99.90
20102;DHT22;10210;52.284;9.892;2024-02-14T04:55:36;9.40;99.90
20102;DHT22;10210;52.284;9.892;2024-02-14T04:58:01;9.40;99.90
20102;DHT22;10210;52.284;9.892;2024-02-14T05:00:27;9.40;99.90
20102;DHT22;10210;52.284;9.892;2024-02-14T05:02:53;9.40;99.90
20102;DHT22;10210;52.284;9.892;2024-02-14T05:05:19;9.40;99.90
20102;DHT22;10210;52.284;9.892;2024-02-14T05:07:45;9.40;99.90
20102;DHT22;10210;52.284;9.892;2024-02-14T05:10:11;9.30;99.90
20102;DHT22;10210;52.284;9.892;2024-02-14T05:12:37;9.30;99.90
20102;DHT22;10210;52.284;9.892;2024-02-14T05:15:05;9.30;99.90
20102;DHT22;10210;52.284;9.892;2024-02-14T05:17:30;9.30;99.90
20102;DHT22;10210;52.284;9.892;2024-02-14T05:19:56;9.30;99.90
20102;DHT22;10210;52.284;9.892;2024-02-14T05:22:22;9.30;99.90
20102;DHT22;10210;52.284;9.892;2024-02-14T05:24:48;9.20;99.90
20102;DHT22;10210;52.284;9.892;2024-02-14T05:27:13;9.30;99.90
20102;DHT22;10210;52.284;9.892;2024-02-14T05:29:39;9.30;99.90
20102;DHT22;10210;52.284;9.892;2024-02-14T05:32:05;9.30;99.90
20102;DHT22;10210;52.284;9.892;2024-02-14T05:34:31;9.30;99.90
20102;DHT22;10210;52.284;9.892;2024-02-14T05:36:57;9.30;99.90
20102;DHT22;10210;52.284;9.892;2024-02-14T05:39:22;9.30;99.90
20102;DHT22;10210;52.284;9.892;2024-02-14T05:41:48;9.30;99.90
20102;DHT22;10210;52.284;9.892;2024-02-14T05:44:14;9.30;99.90
20102;DHT22;10210;52.284;9.892;2024-02-14T05:46:40;9.40;99.90
20102;DHT22;10210;52.284;9.892;2024-02-14T05:49:06;9.40;99.90
20102;DHT22;10210;52.284;9.892;2024-02-14T05:51:32;9.40;99.90
20102;DHT22;10210;52.284;9.892;2024-02-14T05:53:58;9.40;99.90
20102;DHT22;10210;52.284;9.892;2024-02-14T05:56:24;9.40;99.90
20102;DHT22;10210;52.284;9.892;2024-02-14T05:58:49;9.40;99.90
20102;DHT22;10210;52.284;9.892;2024-02-14T06:01:15;9.40;99.90
20102;DHT22;10210;52.284;9.892;2024-02-14T06:03:42;9.50;99.90
20102;DHT22;10210;52.284;9.892;2024-02-14T06:06:09;9.50;99.90
20102;DHT22;10210;52.284;9.892;2024-02-14T06:08:35;9.50;99.90
20102;DHT22;10210;52.284;9.892;2024-02-14T06:11:00;9.50;99.90
20102;DHT22;10210;52.284;9.892;2024-02-14T06:13:26;9.50;99.90
20102;DHT22;10210;52.284;9.892;2024-02-14T06:15:52;9.50;99.90
20102;DHT22;10210;52.284;9.892;2024-02-14T06:18:18;9.60;99.90
20102;DHT22;10210;52.284;9.892;2024-02-14T06:20:43;9.60;99.90
20102;DHT22;10210;52.284;9.892;2024-02-14T06:23:09;9.60;99.90
20102;DHT22;10210;52.284;9.892;2024-02-14T06:25:35;9.60;99.90
20102;DHT22;10210;52.284;9.892;2024-02-14T06:28:00;9.60;99.90
20102;DHT22;10210;52.284;9.892;2024-02-14T06:30:27;9.60;99.90
20102;DHT22;10210;52.284;9.892;2024-02-14T06:32:52;9.60;99.90
20102;DHT22;10210;52.284;9.892;2024-02-14T06:35:18;9.60;99.90
20102;DHT22;10210;52.284;9.892;2024-02-14T06:37:46;9.60;99.90
20102;DHT22;10210;52.284;9.892;2024-02-14T06:40:12;9.60;99.90
20102;DHT22;10210;52.284;9.892;2024-02-14T06:42:38;9.70;99.90
20102;DHT22;10210;52.284;9.892;2024-02-14T06:45:06;9.70;99.90
20102;DHT22;10210;52.284;9.892;2024-02-14T06:47:32;9.70;99.90
20102;DHT22;10210;52.284;9.892;2024-02-14T06:49:58;9.70;99.90
20102;DHT22;10210;52.284;9.892;2024-02-14T06:52:24;9.70;99.90
20102;DHT22;10210;52.284;9.892;2024-02-14T06:54:50;9.70;99.90
20102;DHT22;10210;52.284;9.892;2024-02-14T06:57:16;9.70;99.90
20102;DHT22;10210;52.284;9.892;2024-02-14T06:59:41;9.70;99.90
20102;DHT22;10210;52.284;9.892;2024-02-14T07:02:09;9.70;99.90
20102;DHT22;10210;52.284;9.892;2024-02-14T07:04:34;9.80;99.90
20102;DHT22;10210;52.284;9.892;2024-02-14T07:07:00;9.70;99.90
20102;DHT22;10210;52.284;9.892;2024-02-14T07:09:26;9.80;99.90
20102;DHT22;10210;52.284;9.892;2024-02-14T07:11:51;9.80;99.90
20102;DHT22;10210;52.284;9.892;2024-02-14T07:14:23;9.80;99.90
20102;DHT22;10210;52.284;9.892;2024-02-14T07:16:48;9.80;99.90
20102;DHT22;10210;52.284;9.892;2024-02-14T07:19:14;9.80;99.90
20102;DHT22;10210;52.284;9.892;2024-02-14T07:21:40;9.80;99.90
20102;DHT22;10210;52.284;9.892;2024-02-14T07:24:05;9.80;99.90
20102;DHT22;10210;52.284;9.892;2024-02-14T07:26:31;9.90;99.90
20102;DHT22;10210;52.284;9.892;2024-02-14T07:28:57;9.80;99.90
20102;DHT22;10210;52.284;9.892;2024-02-14T07:31:23;9.90;99.90
20102;DHT22;10210;52.284;9.892;2024-02-14T07:33:49;9.90;99.90
20102;DHT22;10210;52.284;9.892;2024-02-14T07:36:18;9.90;99.90
20102;DHT22;10210;52.284;9.892;2024-02-14T07:38:44;9.90;99.90
20102;DHT22;10210;52.284;9.892;2024-02-14T07:41:10;9.90;99.90
20102;DHT22;10210;52.284;9.892;2024-02-14T07:43:35;9.90;99.90
20102;DHT22;10210;52.284;9.892;2024-02-14T07:46:01;10.00;99.90
20102;DHT22;10210;52.284;9.892;2024-02-14T07:48:27;10.00;99.90
20102;DHT22;10210;52.284;9.892;2024-02-14T07:50:52;10.00;99.90
20102;DHT22;10210;52.284;9.892;2024-02-14T07:53:18;10.00;99.90
20102;DHT22;10210;52.284;9.892;2024-02-14T07:55:44;10.00;99.90
20102;DHT22;10210;52.284;9.892;2024-02-14T07:58:09;10.00;99.90
20102;DHT22;10210;52.284;9.892;2024-02-14T08:00:35;10.10;99.90
20102;DHT22;10210;52.284;9.892;2024-02-14T08:03:02;10.00;99.90
20102;DHT22;10210;52.284;9.892;2024-02-14T08:05:29;10.10;99.90
20102;DHT22;10210;52.284;9.892;2024-02-14T08:07:55;10.10;99.90
20102;DHT22;10210;52.284;9.892;2024-02-14T08:10:21;10.10;99.90
20102;DHT22;10210;52.284;9.892;2024-02-14T08:12:47;10.10;99.90
20102;DHT22;10210;52.284;9.892;2024-02-14T08:15:13;10.10;99.90
20102;DHT22;10210;52.284;9.892;2024-02-14T08:17:39;10.20;99.90
20102;DHT22;10210;52.284;9.892;2024-02-14T08:20:05;10.10;99.90
20102;DHT22;10210;52.284;9.892;2024-02-14T08:22:31;10.10;99.90
20102;DHT22;10210;52.284;9.892;2024-02-14T08:24:58;10.20;99.90
20102;DHT22;10210;52.284;9.892;2024-02-14T08:27:24;10.20;99.90
20102;DHT22;10210;52.284;9.892;2024-02-14T08:29:51;10.20;99.90
20102;DHT22;10210;52.284;9.892;2024-02-14T08:32:17;10.20;99.90
20102;DHT22;10210;52.284;9.892;2024-02-14T08:34:43;10.20;99.90
20102;DHT22;10210;52.284;9.892;2024-02-14T08:37:09;10.20;99.90
20102;DHT22;10210;52.284;9.892;2024-02-14T08:39:35;10.20;99.90
20102;DHT22;10210;52.284;9.892;2024-02-14T08:42:01;10.30;99.90
20102;DHT22;10210;52.284;9.892;2024-02-14T08:44:33;10.30;99.90
20102;DHT22;10210;52.284;9.892;2024-02-14T08:46:59;10.30;99.90
20102;DHT22;10210;52.284;9.892;2024-02-14T08:49:25;10.30;99.90
20102;DHT22;10210;52.284;9.892;2024-02-14T08:51:51;10.30;99.90
20102;DHT22;10210;52.284;9.892;2024-02-14T08:54:17;10.30;99.90
20102;DHT22;10210;52.284;9.892;2024-02-14T08:56:42;10.40;99.90
20102;DHT22;10210;52.284;9.892;2024-02-14T08:59:09;10.40;99.90
20102;DHT22;10210;52.284;9.892;2024-02-14T09:01:37;10.40;99.90
20102;DHT22;10210;52.284;9.892;2024-02-14T09:04:02;10.40;99.90
20102;DHT22;10210;52.284;9.892;2024-02-14T09:06:28;10.40;99.90
20102;DHT22;10210;52.284;9.892;2024-02-14T09:08:54;10.40;99.90
20102;DHT22;10210;52.284;9.892;2024-02-14T09:11:20;10.40;99.90
20102;DHT22;10210;52.284;9.892;2024-02-14T09:13:48;10.50;99.90
20102;DHT22;10210;52.284;9.892;2024-02-14T09:16:16;10.50;99.90
20102;DHT22;10210;52.284;9.892;2024-02-14T09:18:42;10.50;99.90
20102;DHT22;10210;52.284;9.892;2024-02-14T09:21:09;10.50;99.90
20102;DHT22;10210;52.284;9.892;2024-02-14T09:23:35;10.50;99.90
20102;DHT22;10210;52.284;9.892;2024-02-14T09:26:06;10.60;99.90
20102;DHT22;10210;52.284;9.892;2024-02-14T09:28:32;10.50;99.90
20102;DHT22;10210;52.284;9.892;2024-02-14T09:31:00;10.60;99.90
20102;DHT22;10210;52.284;9.892;2024-02-14T09:33:26;10.60;99.90
20102;DHT22;10210;52.284;9.892;2024-02-14T09:35:52;10.70;99.90
20102;DHT22;10210;52.284;9.892;2024-02-14T09:38:18;10.70;99.90
20102;DHT22;10210;52.284;9.892;2024-02-14T09:40:44;10.70;99.90
20102;DHT22;10210;52.284;9.892;2024-02-14T09:43:35;10.70;99.90
20102;DHT22;10210;52.284;9.892;2024-02-14T09:46:03;10.80;99.90
20102;DHT22;10210;52.284;9.892;2024-02-14T09:48:29;10.70;99.90
20102;DHT22;10210;52.284;9.892;2024-02-14T09:50:56;10.80;99.90
20102;DHT22;10210;52.284;9.892;2024-02-14T09:53:23;10.80;99.90
20102;DHT22;10210;52.284;9.892;2024-02-14T09:55:50;10.90;99.90
20102;DHT22;10210;52.284;9.892;2024-02-14T09:58:17;10.90;99.90
20102;DHT22;10210;52.284;9.892;2024-02-14T10:00:43;10.90;99.90
20102;DHT22;10210;52.284;9.892;2024-02-14T10:03:09;11.00;99.90
20102;DHT22;10210;52.284;9.892;2024-02-14T10:05:35;11.00;99.90
20102;DHT22;10210;52.284;9.892;2024-02-14T10:08:01;11.00;99.90
20102;DHT22;10210;52.284;9.892;2024-02-14T10:10:28;11.00;99.90
20102;DHT22;10210;52.284;9.892;2024-02-14T10:12:55;11.10;99.90
20102;DHT22;10210;52.284;9.892;2024-02-14T10:15:22;11.20;99.90
20102;DHT22;10210;52.284;9.892;2024-02-14T10:17:48;11.20;99.90
20102;DHT22;10210;52.284;9.892;2024-02-14T10:20:17;11.20;99.90
20102;DHT22;10210;52.284;9.892;2024-02-14T10:22:45;11.20;99.90
20102;DHT22;10210;52.284;9.892;2024-02-14T10:25:11;11.30;99.90
20102;DHT22;10210;52.284;9.892;2024-02-14T10:27:38;11.30;99.90
20102;DHT22;10210;52.284;9.892;2024-02-14T10:30:06;11.30;99.90
20102;DHT22;10210;52.284;9.892;2024-02-14T10:32:39;11.40;99.90
20102;DHT22;10210;52.284;9.892;2024-02-14T10:35:07;11.40;99.90
20102;DHT22;10210;52.284;9.892;2024-02-14T10:37:35;11.50;99.90
20102;DHT22;10210;52.284;9.892;2024-02-14T10:40:05;11.50;99.90
20102;DHT22;10210;52.284;9.892;2024-02-14T10:42:32;11.60;99.90
20102;DHT22;10210;52.284;9.892;2024-02-14T10:44:59;11.60;99.90
20102;DHT22;10210;52.284;9.892;2024-02-14T10:47:31;11.60;99.90
20102;DHT22;10210;52.284;9.892;2024-02-14T10:50:04;11.60;99.90
20102;DHT22;10210;52.284;9.892;2024-02-14T10:52:33;11.70;99.90
20102;DHT22;10210;52.284;9.892;2024-02-14T10:55:03;11.70;99.90
20102;DHT22;10210;52.284;9.892;2024-02-14T10:57:31;11.70;99.90
20102;DHT22;10210;52.284;9.892;2024-02-14T10:59:59;11.80;99.90
20102;DHT22;10210;52.284;9.892;2024-02-14T11:02:29;11.80;99.90
20102;DHT22;10210;52.284;9.892;2024-02-14T11:04:56;11.90;99.90
20102;DHT22;10210;52.284;9.892;2024-02-14T11:07:22;11.90;99.90
20102;DHT22;10210;52.284;9.892;2024-02-14T11:10:09;11.90;99.90
20102;DHT22;10210;52.284;9.892;2024-02-14T11:12:38;11.90;99.90
20102;DHT22;10210;52.284;9.892;2024-02-14T11:15:17;12.00;99.90
20102;DHT22;10210;52.284;9.892;2024-02-14T11:17:46;12.10;99.90
20102;DHT22;10210;52.284;9.892;2024-02-14T11:20:36;12.10;99.90
20102;DHT22;10210;52.284;9.892;2024-02-14T11:23:03;12.10;99.90
20102;DHT22;10210;52.284;9.892;2024-02-14T11:25:32;12.20;99.90
20102;DHT22;10210;52.284;9.892;2024-02-14T11:28:00;12.20;99.90
20102;DHT22;10210;52.284;9.892;2024-02-14T11:30:40;12.30;99.90
20102;DHT22;10210;52.284;9.892;2024-02-14T11:33:23;12.30;99.90
20102;DHT22;10210;52.284;9.892;2024-02-14T11:35:53;12.30;99.90
20102;DHT22;10210;52.284;9.892;2024-02-14T11:38:22;12.40;99.90
20102;DHT22;10210;52.284;9.892;2024-02-14T11:40:53;12.40;99.90
20102;DHT22;10210;52.284;9.892;2024-02-14T11:43:20;12.50;99.90
20102;DHT22;10210;52.284;9.892;2024-02-14T11:45:46;12.50;99.90
20102;DHT22;10210;52.284;9.892;2024-02-14T11:48:16;12.50;99.90
20102;DHT22;10210;52.284;9.892;2024-02-14T11:50:44;12.50;99.90
20102;DHT22;10210;52.284;9.892;2024-02-14T11:53:11;12.50;99.90
20102;DHT22;10210;52.284;9.892;2024-02-14T11:55:39;12.60;99.90
20102;DHT22;10210;52.284;9.892;2024-02-14T11:58:16;12.60;99.90
20102;DHT22;10210;52.284;9.892;2024-02-14T12:00:44;12.60;99.90
20102;DHT22;10210;52.284;9.892;2024-02-14T12:03:17;12.60;99.90
20102;DHT22;10210;52.284;9.892;2024-02-14T12:05:46;12.70;99.90
20102;DHT22;10210;52.284;9.892;2024-02-14T12:08:14;12.70;99.90
20102;DHT22;10210;52.284;9.892;2024-02-14T12:10:43;12.70;99.90
20102;DHT22;10210;52.284;9.892;2024-02-14T12:13:15;12.70;99.90
20102;DHT22;10210;52.284;9.892;2024-02-14T12:15:47;12.70;99.90
20102;DHT22;10210;52.284;9.892;2024-02-14T12:18:16;12.70;99.90
20102;DHT22;10210;52.284;9.892;2024-02-14T12:20:45;12.70;99.90
20102;DHT22;10210;52.284;9.892;2024-02-14T12:23:15;12.80;99.90
20102;DHT22;10210;52.284;9.892;2024-02-14T12:25:46;12.70;99.90
20102;DHT22;10210;52.284;9.892;2024-02-14T12:28:16;12.80;99.90
20102;DHT22;10210;52.284;9.892;2024-02-14T12:30:50;12.80;99.90
20102;DHT22;10210;52.284;9.892;2024-02-14T12:33:26;12.70;99.90
20102;DHT22;10210;52.284;9.892;2024-02-14T12:35:54;12.80;99.90
20102;DHT22;10210;52.284;9.892;2024-02-14T12:38:22;12.80;99.90
20102;DHT22;10210;52.284;9.892;2024-02-14T12:40:48;12.80;99.90
20102;DHT22;10210;52.284;9.892;2024-02-14T12:43:15;12.80;99.90
20102;DHT22;10210;52.284;9.892;2024-02-14T12:45:41;12.80;99.90
20102;DHT22;10210;52.284;9.892;2024-02-14T12:48:10;12.80;99.90
20102;DHT22;10210;52.284;9.892;2024-02-14T12:50:37;12.80;99.90
20102;DHT22;10210;52.284;9.892;2024-02-14T12:53:04;12.80;99.90
20102;DHT22;10210;52.284;9.892;2024-02-14T12:55:31;12.80;99.90
20102;DHT22;10210;52.284;9.892;2024-02-14T12:57:56;12.80;99.90
20102;DHT22;10210;52.284;9.892;2024-02-14T13:00:23;12.80;99.90
20102;DHT22;10210;52.284;9.892;2024-02-14T13:02:49;12.80;99.90
20102;DHT22;10210;52.284;9.892;2024-02-14T13:05:16;12.80;99.90
20102;DHT22;10210;52.284;9.892;2024-02-14T13:07:43;12.80;99.90
20102;DHT22;10210;52.284;9.892;2024-02-14T13:10:10;12.80;99.90
20102;DHT22;10210;52.284;9.892;2024-02-14T13:12:39;12.80;99.90
20102;DHT22;10210;52.284;9.892;2024-02-14T13:15:09;12.80;99.90
20102;DHT22;10210;52.284;9.892;2024-02-14T13:17:35;12.80;99.90
20102;DHT22;10210;52.284;9.892;2024-02-14T13:20:01;12.80;99.90
20102;DHT22;10210;52.284;9.892;2024-02-14T13:22:27;12.80;99.90
20102;DHT22;10210;52.284;9.892;2024-02-14T13:24:53;12.80;99.90
20102;DHT22;10210;52.284;9.892;2024-02-14T13:27:18;12.80;99.90
20102;DHT22;10210;52.284;9.892;2024-02-14T13:29:47;12.80;99.90
20102;DHT22;10210;52.284;9.892;2024-02-14T13:32:12;12.80;99.90
20102;DHT22;10210;52.284;9.892;2024-02-14T13:34:38;12.80;99.90
20102;DHT22;10210;52.284;9.892;2024-02-14T13:37:05;12.80;99.90
20102;DHT22;10210;52.284;9.892;2024-02-14T13:39:31;12.80;99.90
20102;DHT22;10210;52.284;9.892;2024-02-14T13:41:57;12.80;99.90
20102;DHT22;10210;52.284;9.892;2024-02-14T13:44:25;12.80;99.90
20102;DHT22;10210;52.284;9.892;2024-02-14T13:46:51;12.70;99.90
20102;DHT22;10210;52.284;9.892;2024-02-14T13:49:18;12.80;99.90
20102;DHT22;10210;52.284;9.892;2024-02-14T13:51:50;12.70;99.90
20102;DHT22;10210;52.284;9.892;2024-02-14T13:54:18;12.80;99.90
20102;DHT22;10210;52.284;9.892;2024-02-14T13:56:44;12.80;99.90
20102;DHT22;10210;52.284;9.892;2024-02-14T13:59:10;12.80;99.90
20102;DHT22;10210;52.284;9.892;2024-02-14T14:01:36;12.80;99.90
20102;DHT22;10210;52.284;9.892;2024-02-14T14:04:02;12.70;99.90
20102;DHT22;10210;52.284;9.892;2024-02-14T14:06:29;12.80;99.90
20102;DHT22;10210;52.284;9.892;2024-02-14T14:08:56;12.80;99.90
20102;DHT22;10210;52.284;9.892;2024-02-14T14:11:21;12.80;99.90
20102;DHT22;10210;52.284;9.892;2024-02-14T14:13:47;12.80;99.90
20102;DHT22;10210;52.284;9.892;2024-02-14T14:16:14;12.80;99.90
20102;DHT22;10210;52.284;9.892;2024-02-14T14:18:40;12.80;99.90
20102;DHT22;10210;52.284;9.892;2024-02-14T14:21:05;12.70;99.90
20102;DHT22;10210;52.284;9.892;2024-02-14T14:23:32;12.70;99.90
20102;DHT22;10210;52.284;9.892;2024-02-14T14:25:58;12.70;99.90
20102;DHT22;10210;52.284;9.892;2024-02-14T14:28:25;12.70;99.90
20102;DHT22;10210;52.284;9.892;2024-02-14T14:30:51;12.70;99.90
20102;DHT22;10210;52.284;9.892;2024-02-14T14:33:19;12.70;99.90
20102;DHT22;10210;52.284;9.892;2024-02-14T14:35:45;12.70;99.90
20102;DHT22;10210;52.284;9.892;2024-02-14T14:38:10;12.70;99.90
20102;DHT22;10210;52.284;9.892;2024-02-14T14:40:36;12.70;99.90
20102;DHT22;10210;52.284;9.892;2024-02-14T14:43:03;12.70;99.90
20102;DHT22;10210;52.284;9.892;2024-02-14T14:45:29;12.60;99.90
20102;DHT22;10210;52.284;9.892;2024-02-14T14:47:56;12.60;99.90
20102;DHT22;10210;52.284;9.892;2024-02-14T14:50:22;12.70;99.90
20102;DHT22;10210;52.284;9.892;2024-02-14T14:52:48;12.60;99.90
20102;DHT22;10210;52.284;9.892;2024-02-14T14:55:13;12.60;99.90
20102;DHT22;10210;52.284;9.892;2024-02-14T14:57:39;12.60;99.90
20102;DHT22;10210;52.284;9.892;2024-02-14T15:00:10;12.60;99.90
20102;DHT22;10210;52.284;9.892;2024-02-14T15:02:43;12.60;99.90
20102;DHT22;10210;52.284;9.892;2024-02-14T15:05:11;12.60;99.90
20102;DHT22;10210;52.284;9.892;2024-02-14T15:07:40;12.60;99.90
20102;DHT22;10210;52.284;9.892;2024-02-14T15:10:07;12.60;99.90
20102;DHT22;10210;52.284;9.892;2024-02-14T15:12:36;12.60;99.90
20102;DHT22;10210;52.284;9.892;2024-02-14T15:15:05;12.60;99.90
20102;DHT22;10210;52.284;9.892;2024-02-14T15:17:32;12.60;99.90
20102;DHT22;10210;52.284;9.892;2024-02-14T15:19:57;12.60;99.90
20102;DHT22;10210;52.284;9.892;2024-02-14T15:22:23;12.60;99.90
20102;DHT22;10210;52.284;9.892;2024-02-14T15:24:54;12.60;99.90
20102;DHT22;10210;52.284;9.892;2024-02-14T15:27:20;12.60;99.90
20102;DHT22;10210;52.284;9.892;2024-02-14T15:29:52;12.60;99.90
20102;DHT22;10210;52.284;9.892;2024-02-14T15:32:36;12.60;99.90
20102;DHT22;10210;52.284;9.892;2024-02-14T15:35:20;12.60;99.90